Аэропорт: Шпаковское. Ставрополь

ICAO: URMT

METAR:
2018/09/23 11:00
URMT 231100Z 32004MPS 280V010 CAVOK 26/08 Q1016 R25/010070 NOSIG RMK QFE723
METAR:
2015/07/25 00:12
TAF TAF URMT 252300Z 2500/2609 12007G12MPS 9999 SCT020